createdAt,value
2024-02-01T00:00:02.329Z,-0.67
2024-02-01T00:02:29.198Z,-0.02
2024-02-01T00:04:55.994Z,0.11
2024-02-01T00:07:22.733Z,-0.13
2024-02-01T00:09:49.815Z,-0.06
2024-02-01T00:12:16.733Z,-0.38
2024-02-01T00:14:44.404Z,-0.46
2024-02-01T00:17:11.225Z,-1.09
2024-02-01T00:19:38.020Z,-0.11
2024-02-01T00:22:05.103Z,-0.44
2024-02-01T00:24:32.822Z,-0.27
2024-02-01T00:26:59.653Z,-0.07
2024-02-01T00:29:26.900Z,0.17
2024-02-01T00:31:53.574Z,-0.06
2024-02-01T00:34:20.485Z,-0.10
2024-02-01T00:36:47.294Z,-0.57
2024-02-01T00:39:14.263Z,-0.22
2024-02-01T00:41:41.141Z,-0.34
2024-02-01T00:44:08.212Z,0.16
2024-02-01T00:46:34.940Z,-0.02
2024-02-01T00:49:01.961Z,-0.38
2024-02-01T00:51:28.772Z,-0.74
2024-02-01T00:53:55.577Z,-0.95
2024-02-01T00:56:22.324Z,-0.45
2024-02-01T00:58:49.059Z,-1.02
2024-02-01T01:01:15.857Z,-0.10
2024-02-01T01:03:42.672Z,-0.47
2024-02-01T01:06:09.555Z,-0.40
2024-02-01T01:08:37.299Z,-0.16
2024-02-01T01:11:05.247Z,-0.54
2024-02-01T01:13:32.138Z,-0.42
2024-02-01T01:15:58.930Z,-0.13
2024-02-01T01:18:25.838Z,-0.82
2024-02-01T01:20:52.876Z,-1.09
2024-02-01T01:23:19.569Z,-1.46
2024-02-01T01:25:46.374Z,-1.53
2024-02-01T01:28:13.081Z,-2.01
2024-02-01T01:30:39.758Z,-1.86
2024-02-01T01:33:06.724Z,-1.26
2024-02-01T01:35:33.546Z,-1.22
2024-02-01T01:38:00.246Z,-0.96
2024-02-01T01:40:27.174Z,-0.56
2024-02-01T01:42:53.869Z,-1.23
2024-02-01T01:45:20.735Z,-0.64
2024-02-01T01:47:47.995Z,-1.31
2024-02-01T01:50:14.968Z,-0.43
2024-02-01T01:52:46.026Z,-1.09
2024-02-01T01:55:13.894Z,-0.13
2024-02-01T01:57:41.131Z,-0.17
2024-02-01T02:00:09.221Z,0.26
2024-02-01T02:02:36.390Z,-0.19
2024-02-01T02:05:03.367Z,-0.35
2024-02-01T02:07:30.061Z,-0.69
2024-02-01T02:10:02.133Z,-0.32
2024-02-01T02:12:29.258Z,-0.68
2024-02-01T02:15:00.933Z,-0.89
2024-02-01T02:17:28.905Z,-0.55
2024-02-01T02:19:55.859Z,-0.66
2024-02-01T02:22:26.716Z,-0.60
2024-02-01T02:24:53.796Z,-0.13
2024-02-01T02:27:21.644Z,-1.00
2024-02-01T02:29:48.815Z,-1.28
2024-02-01T02:32:15.886Z,-1.07
2024-02-01T02:34:42.863Z,-0.76
2024-02-01T02:37:10.141Z,-0.90
2024-02-01T02:39:38.535Z,-0.91
2024-02-01T02:42:05.858Z,-1.24
2024-02-01T02:44:32.735Z,-0.75
2024-02-01T02:46:59.554Z,-1.17
2024-02-01T02:49:26.420Z,-1.48
2024-02-01T02:51:53.459Z,-1.08
2024-02-01T02:54:20.266Z,-1.83
2024-02-01T02:56:47.076Z,-2.13
2024-02-01T02:59:13.793Z,-1.61
2024-02-01T03:01:41.561Z,-2.03
2024-02-01T03:04:09.721Z,-1.75
2024-02-01T03:06:36.897Z,-1.80
2024-02-01T03:09:04.254Z,-1.63
2024-02-01T03:11:31.081Z,-1.43
2024-02-01T03:13:57.915Z,-1.81
2024-02-01T03:16:24.682Z,-1.50
2024-02-01T03:18:52.049Z,-1.06
2024-02-01T03:21:20.632Z,-1.45
2024-02-01T03:23:49.233Z,-1.25
2024-02-01T03:26:16.179Z,-1.26
2024-02-01T03:28:44.461Z,-1.05
2024-02-01T03:31:13.160Z,-0.68
2024-02-01T03:33:46.110Z,-0.58
2024-02-01T03:36:13.480Z,-1.41
2024-02-01T03:38:44.270Z,-0.74
2024-02-01T03:41:12.772Z,-0.84
2024-02-01T03:43:40.159Z,-0.62
2024-02-01T03:46:06.996Z,-1.40
2024-02-01T03:48:34.411Z,-1.06
2024-02-01T03:51:01.984Z,-1.65
2024-02-01T03:53:29.215Z,-1.00
2024-02-01T03:55:55.951Z,-0.99
2024-02-01T03:58:22.909Z,-0.76
2024-02-01T04:00:51.769Z,-1.01
2024-02-01T04:03:18.786Z,-0.77
2024-02-01T04:05:45.690Z,-0.61
2024-02-01T04:08:17.425Z,-1.39
2024-02-01T04:10:46.350Z,-0.94
2024-02-01T04:13:12.983Z,-0.73
2024-02-01T04:15:39.681Z,-0.86
2024-02-01T04:18:09.272Z,-1.17
2024-02-01T04:20:36.382Z,-0.88
2024-02-01T04:23:03.477Z,-1.12
2024-02-01T04:25:30.824Z,-0.89
2024-02-01T04:27:57.676Z,-0.88
2024-02-01T04:30:25.565Z,-1.16
2024-02-01T04:32:52.745Z,-0.96
2024-02-01T04:35:19.667Z,-1.26
2024-02-01T04:37:46.768Z,-0.64
2024-02-01T04:40:13.892Z,-0.93
2024-02-01T04:42:41.800Z,-0.82
2024-02-01T04:45:10.030Z,-0.88
2024-02-01T04:47:37.530Z,-0.68
2024-02-01T04:50:06.125Z,-0.87
2024-02-01T04:52:34.886Z,-0.88
2024-02-01T04:55:04.384Z,-1.26
2024-02-01T04:57:31.727Z,-0.66
2024-02-01T04:59:58.469Z,-0.92
2024-02-01T05:02:25.298Z,-1.08
2024-02-01T05:04:51.990Z,-1.23
2024-02-01T05:07:18.726Z,-1.22
2024-02-01T05:09:45.600Z,-0.76
2024-02-01T05:12:12.686Z,-1.32
2024-02-01T05:14:39.787Z,-0.67
2024-02-01T05:17:06.545Z,-0.74
2024-02-01T05:19:33.500Z,-0.90
2024-02-01T05:22:00.218Z,-1.74
2024-02-01T05:24:27.474Z,-0.87
2024-02-01T05:26:54.404Z,-1.33
2024-02-01T05:29:22.716Z,-1.31
2024-02-01T05:31:54.403Z,-1.17
2024-02-01T05:34:22.742Z,-1.29
2024-02-01T05:36:52.785Z,-1.28
2024-02-01T05:39:26.768Z,-1.28
2024-02-01T05:41:55.382Z,-1.50
2024-02-01T05:44:22.405Z,-1.20
2024-02-01T05:46:50.101Z,-1.45
2024-02-01T05:49:20.214Z,-1.24
2024-02-01T05:51:49.091Z,-1.13
2024-02-01T05:54:16.475Z,-1.10
2024-02-01T05:56:46.805Z,-1.16
2024-02-01T05:59:14.834Z,-1.15
2024-02-01T06:01:42.186Z,-0.93
2024-02-01T06:04:10.637Z,-1.23
2024-02-01T06:06:48.717Z,-1.07
2024-02-01T06:09:17.315Z,-1.06
2024-02-01T06:11:45.986Z,-0.94
2024-02-01T06:14:16.481Z,-0.64
2024-02-01T06:16:45.159Z,-1.02
2024-02-01T06:19:12.328Z,-1.00
2024-02-01T06:21:39.416Z,-0.79
2024-02-01T06:24:06.821Z,-0.16
2024-02-01T06:26:33.736Z,-0.42
2024-02-01T06:29:09.060Z,-0.30
2024-02-01T06:31:42.003Z,-0.42
2024-02-01T06:34:10.503Z,-0.46
2024-02-01T06:36:52.160Z,-0.43
2024-02-01T06:39:38.686Z,-0.76
2024-02-01T06:42:15.800Z,-0.69
2024-02-01T06:44:48.068Z,0.06
2024-02-01T06:47:25.209Z,-0.19
2024-02-01T06:50:02.476Z,0.04
2024-02-01T06:52:41.646Z,-0.31
2024-02-01T06:55:12.312Z,0.58
2024-02-01T06:57:48.971Z,-0.60
2024-02-01T07:00:35.995Z,-1.14
2024-02-01T07:03:04.086Z,-0.35
2024-02-01T07:05:58.136Z,-0.01
2024-02-01T07:08:55.103Z,-0.24
2024-02-01T07:11:29.580Z,0.87
2024-02-01T07:13:56.318Z,0.27
2024-02-01T07:16:26.258Z,0.56
2024-02-01T07:19:14.150Z,0.15
2024-02-01T07:22:00.263Z,0.24
2024-02-01T07:24:46.519Z,-0.29
2024-02-01T07:27:32.533Z,0.24
2024-02-01T07:30:19.065Z,-0.08
2024-02-01T07:33:04.482Z,0.40
2024-02-01T07:35:49.846Z,0.83
2024-02-01T07:38:35.218Z,0.72
2024-02-01T07:41:20.565Z,0.47
2024-02-01T07:44:05.559Z,0.48
2024-02-01T07:46:50.943Z,0.43
2024-02-01T07:49:36.495Z,0.55
2024-02-01T07:52:22.342Z,0.29
2024-02-01T07:55:07.565Z,0.81
2024-02-01T07:57:52.647Z,0.56
2024-02-01T08:00:29.827Z,0.63
2024-02-01T08:03:15.821Z,1.36
2024-02-01T08:06:01.577Z,0.60
2024-02-01T08:08:28.754Z,1.55
2024-02-01T08:10:59.759Z,1.45
2024-02-01T08:13:27.057Z,2.14
2024-02-01T08:15:55.829Z,1.99
2024-02-01T08:18:24.527Z,2.13
2024-02-01T08:20:51.517Z,1.84
2024-02-01T08:23:21.113Z,2.40
2024-02-01T08:25:48.209Z,2.54
2024-02-01T08:28:16.304Z,1.41
2024-02-01T08:30:53.916Z,2.60
2024-02-01T08:33:20.784Z,2.37
2024-02-01T08:35:48.978Z,2.11
2024-02-01T08:38:19.367Z,1.64
2024-02-01T08:40:47.608Z,1.39
2024-02-01T08:43:14.894Z,1.74
2024-02-01T08:45:46.209Z,2.04
2024-02-01T08:48:13.814Z,1.51
2024-02-01T08:50:50.079Z,1.40
2024-02-01T08:53:18.808Z,2.02
2024-02-01T08:55:46.758Z,2.10
2024-02-01T08:58:14.331Z,2.04
2024-02-01T09:00:46.536Z,1.58
2024-02-01T09:03:17.745Z,1.49
2024-02-01T09:05:52.621Z,2.57
2024-02-01T09:08:41.946Z,2.46
2024-02-01T09:11:19.050Z,3.30
2024-02-01T09:13:48.059Z,2.07
2024-02-01T09:16:20.746Z,2.10
2024-02-01T09:18:48.256Z,2.17
2024-02-01T09:21:15.700Z,2.58
2024-02-01T09:23:42.666Z,2.81
2024-02-01T09:26:10.560Z,2.58
2024-02-01T09:28:42.920Z,1.94
2024-02-01T09:31:23.879Z,2.06
2024-02-01T09:33:51.980Z,1.54
2024-02-01T09:36:20.121Z,2.15
2024-02-01T09:38:47.267Z,1.46
2024-02-01T09:41:20.543Z,2.18
2024-02-01T09:43:52.507Z,2.52
2024-02-01T09:46:20.569Z,2.78
2024-02-01T09:48:48.119Z,2.42
2024-02-01T09:51:21.435Z,2.44
2024-02-01T09:53:49.516Z,2.50
2024-02-01T09:56:17.929Z,1.89
2024-02-01T09:58:45.538Z,2.47
2024-02-01T10:01:14.129Z,2.71
2024-02-01T10:03:45.889Z,3.30
2024-02-01T10:06:13.898Z,2.83
2024-02-01T10:08:41.280Z,2.37
2024-02-01T10:11:08.298Z,2.92
2024-02-01T10:13:37.374Z,2.63
2024-02-01T10:16:14.054Z,2.12
2024-02-01T10:18:43.164Z,2.16
2024-02-01T10:21:35.612Z,2.23
2024-02-01T10:24:08.723Z,2.25
2024-02-01T10:26:36.172Z,2.54
2024-02-01T10:29:02.898Z,1.97
2024-02-01T10:31:32.573Z,2.28
2024-02-01T10:34:11.941Z,2.63
2024-02-01T10:36:44.445Z,2.07
2024-02-01T10:39:22.579Z,1.96
2024-02-01T10:41:57.333Z,1.30
2024-02-01T10:44:35.139Z,2.20
2024-02-01T10:47:06.525Z,1.65
2024-02-01T10:49:39.065Z,2.10
2024-02-01T10:52:08.157Z,1.94
2024-02-01T10:54:36.638Z,2.00
2024-02-01T10:57:07.988Z,1.54
2024-02-01T10:59:37.358Z,1.08
2024-02-01T11:02:04.421Z,1.06
2024-02-01T11:04:39.979Z,0.70
2024-02-01T11:07:07.701Z,1.85
2024-02-01T11:09:37.284Z,1.16
2024-02-01T11:12:15.472Z,2.00
2024-02-01T11:14:42.328Z,1.36
2024-02-01T11:17:19.898Z,1.75
2024-02-01T11:19:50.486Z,1.88
2024-02-01T11:22:19.538Z,1.99
2024-02-01T11:24:46.673Z,1.33
2024-02-01T11:27:22.031Z,1.75
2024-02-01T11:29:53.972Z,2.14
2024-02-01T11:32:25.306Z,1.70
2024-02-01T11:34:54.819Z,1.87
2024-02-01T11:37:25.810Z,1.57
2024-02-01T11:39:55.050Z,2.02
2024-02-01T11:42:31.907Z,1.69
2024-02-01T11:45:03.206Z,2.38
2024-02-01T11:47:33.454Z,2.57
2024-02-01T11:50:00.741Z,2.47
2024-02-01T11:52:45.653Z,2.54
2024-02-01T11:55:13.268Z,2.34
2024-02-01T11:57:55.016Z,2.26
2024-02-01T12:00:44.137Z,2.74
2024-02-01T12:03:17.293Z,2.23
2024-02-01T12:05:47.581Z,3.26
2024-02-01T12:08:15.042Z,2.32
2024-02-01T12:10:47.451Z,1.76
2024-02-01T12:13:17.088Z,1.84
2024-02-01T12:15:53.507Z,2.67
2024-02-01T12:18:21.281Z,2.41
2024-02-01T12:20:51.957Z,1.96
2024-02-01T12:23:18.809Z,2.26
2024-02-01T12:25:47.327Z,2.08
2024-02-01T12:28:14.524Z,2.22
2024-02-01T12:30:46.543Z,1.92
2024-02-01T12:33:15.831Z,3.13
2024-02-01T12:35:43.425Z,3.07
2024-02-01T12:38:11.314Z,3.38
2024-02-01T12:40:38.285Z,2.49
2024-02-01T12:43:06.311Z,3.34
2024-02-01T12:45:33.484Z,3.45
2024-02-01T12:48:00.409Z,3.35
2024-02-01T12:50:27.595Z,2.79
2024-02-01T12:52:54.454Z,2.71
2024-02-01T12:55:21.817Z,2.87
2024-02-01T12:57:48.776Z,2.66
2024-02-01T13:00:16.877Z,2.71
2024-02-01T13:02:46.359Z,2.75
2024-02-01T13:05:13.881Z,2.70
2024-02-01T13:07:40.724Z,2.46
2024-02-01T13:10:14.694Z,2.13
2024-02-01T13:12:56.597Z,3.01
2024-02-01T13:15:28.508Z,2.39
2024-02-01T13:17:56.101Z,2.95
2024-02-01T13:20:23.519Z,2.85
2024-02-01T13:22:52.162Z,3.26
2024-02-01T13:25:22.255Z,2.12
2024-02-01T13:27:51.778Z,2.71
2024-02-01T13:30:20.565Z,2.82
2024-02-01T13:32:49.903Z,2.31
2024-02-01T13:35:17.183Z,1.98
2024-02-01T13:37:47.928Z,2.88
2024-02-01T13:40:18.778Z,3.08
2024-02-01T13:42:46.662Z,1.97
2024-02-01T13:45:14.451Z,1.84
2024-02-01T13:47:52.946Z,2.44
2024-02-01T13:50:22.611Z,2.64
2024-02-01T13:52:50.572Z,1.78
2024-02-01T13:55:17.378Z,1.81
2024-02-01T13:57:44.132Z,2.50
2024-02-01T14:00:17.455Z,2.37
2024-02-01T14:02:45.940Z,1.65
2024-02-01T14:05:14.004Z,1.62
2024-02-01T14:07:42.199Z,1.62
2024-02-01T14:10:10.640Z,2.19
2024-02-01T14:12:41.849Z,2.04
2024-02-01T14:15:09.691Z,2.32
2024-02-01T14:17:36.738Z,2.15
2024-02-01T14:20:04.904Z,2.09
2024-02-01T14:22:31.852Z,2.07
2024-02-01T14:24:58.553Z,2.32
2024-02-01T14:27:26.129Z,2.26
2024-02-01T14:29:52.971Z,2.50
2024-02-01T14:32:19.774Z,2.64
2024-02-01T14:34:47.750Z,2.11
2024-02-01T14:37:14.919Z,1.95
2024-02-01T14:39:43.205Z,2.98
2024-02-01T14:42:10.555Z,1.41
2024-02-01T14:44:38.209Z,1.53
2024-02-01T14:47:08.658Z,2.02
2024-02-01T14:49:36.510Z,2.75
2024-02-01T14:52:03.642Z,2.29
2024-02-01T14:54:30.368Z,2.37
2024-02-01T14:56:57.214Z,2.10
2024-02-01T14:59:24.380Z,2.13
2024-02-01T15:01:51.153Z,2.61
2024-02-01T15:04:18.013Z,2.55
2024-02-01T15:06:44.992Z,2.75
2024-02-01T15:09:12.484Z,2.05
2024-02-01T15:11:39.511Z,2.51
2024-02-01T15:14:06.406Z,2.38
2024-02-01T15:16:34.251Z,2.48
2024-02-01T15:19:02.628Z,2.26
2024-02-01T15:21:33.204Z,2.83
2024-02-01T15:24:01.010Z,2.70
2024-02-01T15:26:28.520Z,2.87
2024-02-01T15:28:58.072Z,2.55
2024-02-01T15:31:24.811Z,3.15
2024-02-01T15:33:55.021Z,1.90
2024-02-01T15:36:22.638Z,1.09
2024-02-01T15:38:52.853Z,2.51
2024-02-01T15:41:20.918Z,2.27
2024-02-01T15:43:47.708Z,2.26
2024-02-01T15:46:14.542Z,2.42
2024-02-01T15:48:44.049Z,1.56
2024-02-01T15:51:11.065Z,1.14
2024-02-01T15:53:37.833Z,2.02
2024-02-01T15:56:04.882Z,1.62
2024-02-01T15:58:31.719Z,1.99
2024-02-01T16:00:58.459Z,2.18
2024-02-01T16:03:26.505Z,2.40
2024-02-01T16:05:57.095Z,0.95
2024-02-01T16:08:24.018Z,1.91
2024-02-01T16:11:01.806Z,1.96
2024-02-01T16:13:37.882Z,1.56
2024-02-01T16:16:07.479Z,1.47
2024-02-01T16:18:40.877Z,2.20
2024-02-01T16:21:08.969Z,2.27
2024-02-01T16:23:37.902Z,1.91
2024-02-01T16:26:06.189Z,1.56
2024-02-01T16:28:41.129Z,1.91
2024-02-01T16:31:10.628Z,1.92
2024-02-01T16:33:55.992Z,1.84
2024-02-01T16:36:39.009Z,1.64
2024-02-01T16:39:11.048Z,2.00
2024-02-01T16:41:37.996Z,2.17
2024-02-01T16:44:08.299Z,1.90
2024-02-01T16:46:51.425Z,2.05
2024-02-01T16:49:24.545Z,2.19
2024-02-01T16:51:52.439Z,1.67
2024-02-01T16:54:19.617Z,1.78
2024-02-01T16:56:46.868Z,1.74
2024-02-01T16:59:21.134Z,1.52
2024-02-01T17:01:54.178Z,1.88
2024-02-01T17:04:26.248Z,1.83
2024-02-01T17:06:54.210Z,2.05
2024-02-01T17:09:24.996Z,1.90
2024-02-01T17:11:55.848Z,1.60
2024-02-01T17:14:25.810Z,2.00
2024-02-01T17:16:52.533Z,1.44
2024-02-01T17:19:19.997Z,1.40
2024-02-01T17:21:49.364Z,1.83
2024-02-01T17:24:24.413Z,2.09
2024-02-01T17:26:53.120Z,1.46
2024-02-01T17:29:25.911Z,1.89
2024-02-01T17:31:53.367Z,2.00
2024-02-01T17:34:47.002Z,1.54
2024-02-01T17:37:45.013Z,1.90
2024-02-01T17:40:20.786Z,2.01
2024-02-01T17:42:50.015Z,1.34
2024-02-01T17:45:18.350Z,1.43
2024-02-01T17:48:02.049Z,1.80
2024-02-01T17:50:41.828Z,1.20
2024-02-01T17:53:10.022Z,1.58
2024-02-01T17:55:54.162Z,2.03
2024-02-01T17:58:42.716Z,1.82
2024-02-01T18:01:20.997Z,1.72
2024-02-01T18:03:57.995Z,1.96
2024-02-01T18:06:35.081Z,2.03
2024-02-01T18:09:02.501Z,2.55
2024-02-01T18:11:30.501Z,1.81
2024-02-01T18:13:58.551Z,2.24
2024-02-01T18:16:29.083Z,1.79
2024-02-01T18:19:06.508Z,2.73
2024-02-01T18:21:38.581Z,2.34
2024-02-01T18:24:06.752Z,1.61
2024-02-01T18:26:34.622Z,2.61
2024-02-01T18:29:01.613Z,2.15
2024-02-01T18:31:28.733Z,2.73
2024-02-01T18:33:56.418Z,2.09
2024-02-01T18:36:32.491Z,1.97
2024-02-01T18:39:06.949Z,2.23
2024-02-01T18:41:35.056Z,2.65
2024-02-01T18:44:14.298Z,1.96
2024-02-01T18:46:52.683Z,2.30
2024-02-01T18:49:27.748Z,2.27
2024-02-01T18:51:58.032Z,2.09
2024-02-01T18:54:34.035Z,1.74
2024-02-01T18:57:01.862Z,2.56
2024-02-01T18:59:31.945Z,2.41
2024-02-01T19:02:03.989Z,2.34
2024-02-01T19:04:32.471Z,2.88
2024-02-01T19:07:00.028Z,1.29
2024-02-01T19:09:45.914Z,2.38
2024-02-01T19:12:44.640Z,2.07
2024-02-01T19:15:46.717Z,1.44
2024-02-01T19:18:16.427Z,2.74
2024-02-01T19:20:47.542Z,2.37
2024-02-01T19:23:19.783Z,2.41
2024-02-01T19:25:50.489Z,1.78
2024-02-01T19:28:47.645Z,1.76
2024-02-01T19:31:18.136Z,2.16
2024-02-01T19:33:48.308Z,2.23
2024-02-01T19:36:30.301Z,2.15
2024-02-01T19:39:02.001Z,1.79
2024-02-01T19:41:28.793Z,2.11
2024-02-01T19:43:55.715Z,1.87
2024-02-01T19:46:22.958Z,2.06
2024-02-01T19:48:50.171Z,2.09
2024-02-01T19:51:17.139Z,1.49
2024-02-01T19:53:44.232Z,1.92
2024-02-01T19:56:11.393Z,2.02
2024-02-01T19:58:38.276Z,1.63
2024-02-01T20:01:05.344Z,2.00
2024-02-01T20:03:32.257Z,1.40
2024-02-01T20:05:59.282Z,2.23
2024-02-01T20:08:26.066Z,2.02
2024-02-01T20:10:53.166Z,2.01
2024-02-01T20:13:20.068Z,2.06
2024-02-01T20:15:46.955Z,1.71
2024-02-01T20:18:22.404Z,2.15
2024-02-01T20:20:50.603Z,1.92
2024-02-01T20:23:18.862Z,2.18
2024-02-01T20:25:45.962Z,1.55
2024-02-01T20:28:47.957Z,1.85
2024-02-01T20:31:27.888Z,1.49
2024-02-01T20:33:56.686Z,1.86
2024-02-01T20:36:37.946Z,1.82
2024-02-01T20:39:04.818Z,2.05
2024-02-01T20:41:33.882Z,1.60
2024-02-01T20:44:01.076Z,1.98
2024-02-01T20:46:27.845Z,1.37
2024-02-01T20:48:54.788Z,1.77
2024-02-01T20:51:58.110Z,2.13
2024-02-01T20:54:33.992Z,2.25
2024-02-01T20:57:22.490Z,2.05
2024-02-01T20:59:53.135Z,2.37
2024-02-01T21:02:54.754Z,1.82
2024-02-01T21:05:27.605Z,1.64
2024-02-01T21:07:55.090Z,1.72
2024-02-01T21:10:24.469Z,2.06
2024-02-01T21:13:11.647Z,1.74
2024-02-01T21:15:40.936Z,2.25
2024-02-01T21:18:18.067Z,1.69
2024-02-01T21:20:46.844Z,1.37
2024-02-01T21:23:48.217Z,1.84
2024-02-01T21:26:15.594Z,1.25
2024-02-01T21:28:43.542Z,1.24
2024-02-01T21:31:25.615Z,2.05
2024-02-01T21:33:56.533Z,1.67
2024-02-01T21:36:24.046Z,1.48
2024-02-01T21:38:51.723Z,1.74
2024-02-01T21:41:20.443Z,1.61
2024-02-01T21:43:47.302Z,1.55
2024-02-01T21:46:17.579Z,2.00
2024-02-01T21:48:44.628Z,1.32
2024-02-01T21:51:11.499Z,1.23
2024-02-01T21:53:38.550Z,0.97
2024-02-01T21:56:05.817Z,1.46
2024-02-01T21:58:32.620Z,1.27
2024-02-01T22:01:01.468Z,1.41
2024-02-01T22:03:28.944Z,1.08
2024-02-01T22:05:55.941Z,1.80
2024-02-01T22:08:22.746Z,1.68
2024-02-01T22:10:49.574Z,1.40
2024-02-01T22:13:16.394Z,1.38
2024-02-01T22:15:43.380Z,1.16
2024-02-01T22:18:10.256Z,1.61
2024-02-01T22:20:37.236Z,1.34
2024-02-01T22:23:04.815Z,1.34
2024-02-01T22:25:31.575Z,1.38
2024-02-01T22:27:58.376Z,1.53
2024-02-01T22:30:25.336Z,1.04
2024-02-01T22:32:52.460Z,1.12
2024-02-01T22:35:19.447Z,1.07
2024-02-01T22:37:46.528Z,1.34
2024-02-01T22:40:13.537Z,1.22
2024-02-01T22:42:40.396Z,0.88
2024-02-01T22:45:09.398Z,1.05
2024-02-01T22:47:36.880Z,1.39
2024-02-01T22:50:04.220Z,1.13
2024-02-01T22:52:31.071Z,1.02
2024-02-01T22:54:57.932Z,1.04
2024-02-01T22:57:24.680Z,1.22
2024-02-01T22:59:54.724Z,1.21
2024-02-01T23:02:21.576Z,1.80
2024-02-01T23:04:48.333Z,1.59
2024-02-01T23:07:15.288Z,1.68
2024-02-01T23:09:42.317Z,1.07
2024-02-01T23:12:09.491Z,1.61
2024-02-01T23:14:36.255Z,1.05
2024-02-01T23:17:03.044Z,1.39
2024-02-01T23:19:29.882Z,0.68
2024-02-01T23:21:57.298Z,0.56
2024-02-01T23:24:24.560Z,0.91
2024-02-01T23:26:51.430Z,0.43
2024-02-01T23:29:18.285Z,0.65
2024-02-01T23:31:45.098Z,0.37
2024-02-01T23:34:12.062Z,1.16
2024-02-01T23:36:39.082Z,0.37
2024-02-01T23:39:05.906Z,0.36
2024-02-01T23:41:32.771Z,0.23
2024-02-01T23:43:59.591Z,0.42
2024-02-01T23:46:26.288Z,0.16
2024-02-01T23:48:53.246Z,0.42
2024-02-01T23:51:20.559Z,0.17
2024-02-01T23:53:47.417Z,0.33
2024-02-01T23:56:14.198Z,0.02
2024-02-01T23:58:41.217Z,0.16
